Time;durP1;ratioP1;P1;durP2;ratioP2;P2;SDS_P1;SDS_P2;PMS_P1;PMS_P2;Temp;Humidity;BMP_temperature;BMP_pressure;BME280_temperature;BME280_humidity;BME280_pressure;Samples;Min_cycle;Max_cycle;Signal;HPM_P1;HPM_P2
2023/09/29 00:00:17;;;;;;;10.05;5.60;;;;;;;15.90;100.00;101371.56;5060200;28;20048;-70
2023/09/29 00:02:44;;;;;;;12.65;5.78;;;;;;;15.93;100.00;101376.75;5056071;28;20044;-70
2023/09/29 00:05:14;;;;;;;9.77;5.40;;;;;;;15.93;100.00;101383.94;5057898;28;20068;-70
2023/09/29 00:07:39;;;;;;;11.00;5.75;;;;;;;15.92;100.00;101382.19;5049773;28;20039;-69
2023/09/29 00:10:10;;;;;;;8.70;5.53;;;;;;;15.93;100.00;101386.63;5076519;28;20111;-69
2023/09/29 00:12:39;;;;;;;9.93;6.00;;;;;;;15.94;100.00;101380.28;5080214;28;20131;-69
2023/09/29 00:15:06;;;;;;;11.75;6.47;;;;;;;15.96;100.00;101374.81;5077553;28;20032;-70
2023/09/29 00:17:32;;;;;;;11.20;5.78;;;;;;;15.96;100.00;101367.63;5084863;28;20067;-69
2023/09/29 00:20:02;;;;;;;13.82;6.53;;;;;;;16.04;100.00;101381.41;5067766;28;20029;-69
2023/09/29 00:22:28;;;;;;;10.70;6.35;;;;;;;16.01;100.00;101384.31;5074200;28;20032;-69
2023/09/29 00:24:54;;;;;;;11.65;7.50;;;;;;;16.03;100.00;101381.50;5088037;28;20028;-70
2023/09/29 00:27:20;;;;;;;10.65;6.78;;;;;;;16.00;100.00;101371.81;5079717;28;20056;-69
2023/09/29 00:29:45;;;;;;;7.47;6.03;;;;;;;16.03;100.00;101373.47;5063047;28;20486;-69
2023/09/29 00:32:11;;;;;;;9.85;6.68;;;;;;;16.05;100.00;101372.41;5058955;28;20457;-70
2023/09/29 00:34:36;;;;;;;10.02;6.70;;;;;;;16.08;100.00;101372.19;5036811;28;20157;-71
2023/09/29 00:37:03;;;;;;;9.35;6.65;;;;;;;16.07;100.00;101365.09;5057123;28;20035;-70
2023/09/29 00:39:28;;;;;;;12.00;6.30;;;;;;;16.10;100.00;101375.66;5064366;28;20036;-69
2023/09/29 00:41:53;;;;;;;9.25;6.18;;;;;;;16.05;100.00;101350.03;5057583;28;20827;-69
2023/09/29 00:44:19;;;;;;;12.48;6.22;;;;;;;16.08;100.00;101355.22;5056560;28;20074;-69
2023/09/29 00:46:45;;;;;;;8.68;5.40;;;;;;;16.02;100.00;101342.22;5062418;28;20136;-69
2023/09/29 00:49:11;;;;;;;8.02;5.43;;;;;;;16.11;100.00;101344.28;5056141;28;20482;-69
2023/09/29 00:51:37;;;;;;;8.07;4.80;;;;;;;16.11;100.00;101355.03;5059242;28;20384;-70
2023/09/29 00:54:08;;;;;;;10.93;5.60;;;;;;;16.09;100.00;101354.25;5065149;28;20028;-69
2023/09/29 00:56:40;;;;;;;8.48;5.32;;;;;;;16.09;100.00;101355.13;5061393;28;20082;-69
2023/09/29 00:59:07;;;;;;;7.88;5.30;;;;;;;16.12;100.00;101352.22;5050919;28;20170;-69
2023/09/29 01:01:36;;;;;;;9.57;5.68;;;;;;;16.10;100.00;101340.75;5062567;28;20055;-70
2023/09/29 01:04:02;;;;;;;8.10;5.22;;;;;;;16.10;100.00;101339.88;5062314;28;20043;-70
2023/09/29 01:06:31;;;;;;;8.10;5.05;;;;;;;16.08;100.00;101344.47;5064318;28;20214;-70
2023/09/29 01:08:59;;;;;;;9.93;5.50;;;;;;;16.09;100.00;101347.09;5062557;28;20135;-69
2023/09/29 01:11:25;;;;;;;8.25;5.47;;;;;;;16.09;100.00;101340.81;5060088;28;20279;-70
2023/09/29 01:13:51;;;;;;;8.55;5.20;;;;;;;16.09;100.00;101335.44;5064667;28;20040;-70
2023/09/29 01:16:17;;;;;;;8.23;5.30;;;;;;;16.10;100.00;101345.25;5062407;28;20024;-70
2023/09/29 01:18:43;;;;;;;9.18;5.30;;;;;;;16.09;100.00;101328.28;5061228;28;20032;-69
2023/09/29 01:21:08;;;;;;;6.18;5.07;;;;;;;16.11;100.00;101334.41;5064823;28;20032;-69
2023/09/29 01:23:35;;;;;;;9.05;5.97;;;;;;;16.11;100.00;101331.72;5064436;28;20514;-71
2023/09/29 01:26:02;;;;;;;10.65;5.60;;;;;;;16.10;100.00;101329.16;5047111;28;20384;-70
2023/09/29 01:28:29;;;;;;;7.65;5.43;;;;;;;16.07;100.00;101326.66;5056946;28;20027;-69
2023/09/29 01:30:54;;;;;;;10.40;5.28;;;;;;;16.07;100.00;101319.44;5063031;28;20025;-70
2023/09/29 01:33:21;;;;;;;10.60;5.35;;;;;;;16.02;100.00;101318.03;5062152;28;20516;-70
2023/09/29 01:35:48;;;;;;;7.80;4.80;;;;;;;16.06;100.00;101320.41;5060680;28;20039;-70
2023/09/29 01:38:14;;;;;;;7.97;4.93;;;;;;;16.06;100.00;101325.78;5061970;28;20118;-70
2023/09/29 01:40:40;;;;;;;6.38;4.65;;;;;;;16.03;100.00;101315.25;5062038;28;20451;-69
2023/09/29 01:43:06;;;;;;;6.10;4.47;;;;;;;16.07;100.00;101321.28;5056393;28;20017;-69
2023/09/29 01:45:32;;;;;;;6.93;4.63;;;;;;;16.05;100.00;101313.34;5062990;28;20558;-69
2023/09/29 01:48:00;;;;;;;7.10;4.53;;;;;;;16.05;100.00;101310.66;5062678;28;20035;-70
2023/09/29 01:50:26;;;;;;;6.57;4.60;;;;;;;16.09;100.00;101308.59;5062600;28;20106;-71
2023/09/29 01:52:51;;;;;;;6.65;4.57;;;;;;;16.04;100.00;101295.47;5061062;28;20032;-70
2023/09/29 01:55:22;;;;;;;5.88;4.65;;;;;;;16.10;100.00;101289.72;5055879;28;20326;-70
2023/09/29 01:57:48;;;;;;;5.90;4.30;;;;;;;16.09;100.00;101293.38;5058161;28;20051;-69
2023/09/29 02:00:23;;;;;;;6.45;4.68;;;;;;;16.10;100.00;101297.78;5062649;28;20024;-69
2023/09/29 02:02:50;;;;;;;7.25;4.40;;;;;;;16.07;100.00;101284.53;5058234;28;20097;-69
2023/09/29 02:05:16;;;;;;;9.18;4.40;;;;;;;16.08;100.00;101288.94;5062008;28;20055;-69
2023/09/29 02:07:43;;;;;;;7.95;4.40;;;;;;;16.11;100.00;101288.75;5061017;28;20098;-69
2023/09/29 02:10:09;;;;;;;6.15;4.20;;;;;;;16.11;100.00;101291.44;5061495;28;20032;-69
2023/09/29 02:12:42;;;;;;;9.38;4.65;;;;;;;16.11;100.00;101282.53;5055179;28;20097;-70
2023/09/29 02:15:08;;;;;;;6.47;4.10;;;;;;;16.10;100.00;101278.13;5062337;28;20028;-69
2023/09/29 02:17:35;;;;;;;7.22;4.60;;;;;;;16.06;100.00;101276.59;5063158;28;20086;-69
2023/09/29 02:20:21;;;;;;;5.07;4.20;;;;;;;16.06;100.00;101281.97;5063460;28;20046;-70
2023/09/29 02:22:47;;;;;;;7.97;4.22;;;;;;;16.04;100.00;101279.38;5061042;28;20043;-69
2023/09/29 02:25:15;;;;;;;6.50;4.00;;;;;;;16.03;100.00;101280.34;5060606;28;20040;-70
2023/09/29 02:27:41;;;;;;;5.63;3.60;;;;;;;16.02;100.00;101275.94;5058069;28;20031;-70
2023/09/29 02:30:09;;;;;;;5.57;4.20;;;;;;;16.02;100.00;101267.03;5062459;28;20028;-70
2023/09/29 02:32:39;;;;;;;4.80;3.72;;;;;;;16.03;100.00;101258.00;5042186;28;20032;-70
2023/09/29 02:35:05;;;;;;;6.53;4.07;;;;;;;16.11;100.00;101261.91;5051874;28;20111;-70
2023/09/29 02:37:31;;;;;;;5.30;4.07;;;;;;;16.14;100.00;101250.09;5056556;28;20054;-70
2023/09/29 02:39:57;;;;;;;4.80;3.70;;;;;;;16.19;100.00;101258.69;5062416;28;20402;-69
2023/09/29 02:42:22;;;;;;;4.95;3.83;;;;;;;16.23;100.00;101256.66;5041120;28;20032;-70
2023/09/29 02:44:47;;;;;;;6.15;3.92;;;;;;;16.23;100.00;101254.84;5055922;28;20028;-70
2023/09/29 02:47:14;;;;;;;9.80;4.10;;;;;;;16.23;100.00;101252.16;5062688;28;20039;-70
2023/09/29 02:49:40;;;;;;;5.38;3.53;;;;;;;16.21;100.00;101246.00;5057536;28;20055;-69
2023/09/29 02:52:06;;;;;;;6.75;3.67;;;;;;;16.16;100.00;101240.09;5042256;28;20119;-70
2023/09/29 02:54:31;;;;;;;5.28;3.75;;;;;;;16.12;100.00;101236.75;5062982;28;20429;-70
2023/09/29 02:56:57;;;;;;;4.88;3.70;;;;;;;16.07;100.00;101238.91;5062639;28;20033;-71
2023/09/29 02:59:24;;;;;;;5.05;3.50;;;;;;;16.04;100.00;101240.94;5060312;28;20028;-70
2023/09/29 03:01:52;;;;;;;7.60;4.10;;;;;;;16.05;100.00;101243.53;5061526;28;20052;-70
2023/09/29 03:04:18;;;;;;;6.53;3.88;;;;;;;16.08;100.00;101234.38;5062725;28;20028;-70
2023/09/29 03:06:43;;;;;;;5.00;3.78;;;;;;;16.09;100.00;101242.34;5060787;28;20099;-70
2023/09/29 03:09:13;;;;;;;5.22;3.55;;;;;;;16.13;100.00;101232.25;5062464;28;20035;-70
2023/09/29 03:11:43;;;;;;;4.40;3.63;;;;;;;16.15;100.00;101233.00;5061890;28;20023;-70
2023/09/29 03:14:08;;;;;;;6.15;3.67;;;;;;;16.17;100.00;101223.88;5062100;28;20032;-70
2023/09/29 03:16:35;;;;;;;6.38;3.95;;;;;;;16.17;100.00;101223.00;5062639;28;20031;-69
2023/09/29 03:19:04;;;;;;;5.35;3.72;;;;;;;16.21;100.00;101219.16;5058597;28;20028;-70
2023/09/29 03:21:30;;;;;;;4.65;3.30;;;;;;;16.23;100.00;101221.75;5054078;28;20025;-70
2023/09/29 03:23:56;;;;;;;6.25;3.55;;;;;;;16.23;100.00;101219.06;5060855;28;20037;-69
2023/09/29 03:26:22;;;;;;;5.55;3.78;;;;;;;16.25;100.00;101219.81;5057933;28;20083;-70
2023/09/29 03:28:49;;;;;;;7.43;3.92;;;;;;;16.26;100.00;101213.47;5057714;28;20029;-69
2023/09/29 03:31:15;;;;;;;4.55;3.60;;;;;;;16.27;100.00;101213.38;5056019;28;20263;-71
2023/09/29 03:33:41;;;;;;;6.03;3.30;;;;;;;16.27;100.00;101205.31;5056999;28;20020;-71
2023/09/29 03:36:06;;;;;;;5.57;3.40;;;;;;;16.26;100.00;101208.97;5058745;28;20483;-69
2023/09/29 03:38:32;;;;;;;6.00;3.75;;;;;;;16.26;100.00;101198.22;5060095;28;20074;-70
2023/09/29 03:40:57;;;;;;;5.45;3.80;;;;;;;16.22;100.00;101196.72;5055133;28;20021;-70
2023/09/29 03:43:23;;;;;;;5.90;3.30;;;;;;;16.17;100.00;101194.31;5058314;28;20029;-70
2023/09/29 03:45:49;;;;;;;5.32;3.67;;;;;;;16.13;100.00;101184.75;5060751;28;20090;-70
2023/09/29 03:48:15;;;;;;;5.55;3.53;;;;;;;16.10;100.00;101200.25;5059796;28;20056;-70
2023/09/29 03:50:41;;;;;;;4.32;3.30;;;;;;;16.08;100.00;101183.38;5050711;28;20044;-69
2023/09/29 03:53:07;;;;;;;4.88;3.40;;;;;;;16.10;100.00;101176.09;5061277;28;20024;-70
2023/09/29 03:55:33;;;;;;;4.22;3.42;;;;;;;16.11;100.00;101167.91;5060455;28;20498;-70
2023/09/29 03:57:59;;;;;;;5.57;3.47;;;;;;;16.11;100.00;101157.16;5055218;28;20195;-70
2023/09/29 04:00:26;;;;;;;4.68;3.50;;;;;;;16.05;100.00;101162.09;5060641;28;20416;-69
2023/09/29 04:02:52;;;;;;;5.50;3.70;;;;;;;16.06;100.00;101174.56;5043420;28;20036;-69
2023/09/29 04:05:18;;;;;;;5.15;3.70;;;;;;;16.04;100.00;101171.13;5057836;28;20047;-70
2023/09/29 04:07:44;;;;;;;4.97;4.22;;;;;;;16.03;100.00;101169.41;5060059;28;20123;-69
2023/09/29 04:10:12;;;;;;;5.55;3.80;;;;;;;16.02;100.00;101159.63;5054668;28;20649;-69
2023/09/29 04:12:40;;;;;;;5.20;3.97;;;;;;;16.01;100.00;101166.84;5073992;28;20032;-68
2023/09/29 04:15:06;;;;;;;6.18;3.92;;;;;;;15.99;100.00;101158.00;5056261;28;20032;-70
2023/09/29 04:17:32;;;;;;;5.00;3.15;;;;;;;15.99;100.00;101158.00;5047406;28;20412;-69
2023/09/29 04:19:57;;;;;;;5.28;3.90;;;;;;;16.00;100.00;101165.09;5057830;28;20428;-70
2023/09/29 04:22:24;;;;;;;4.50;3.80;;;;;;;15.99;100.00;101163.38;5064620;28;20028;-70
2023/09/29 04:24:50;;;;;;;4.75;3.63;;;;;;;15.98;100.00;101161.66;5057097;28;20024;-70
2023/09/29 04:27:15;;;;;;;4.32;3.72;;;;;;;15.99;100.00;101166.06;5058087;28;20580;-70
2023/09/29 04:29:41;;;;;;;4.50;3.53;;;;;;;15.99;100.00;101157.16;5065139;28;20033;-69
2023/09/29 04:32:06;;;;;;;6.13;3.70;;;;;;;15.94;100.00;101150.28;5055263;28;20082;-69
2023/09/29 04:34:32;;;;;;;4.53;3.75;;;;;;;15.99;100.00;101151.78;5065233;28;20040;-70
2023/09/29 04:36:57;;;;;;;5.25;3.90;;;;;;;16.00;100.00;101140.06;5044625;28;20484;-69
2023/09/29 04:39:22;;;;;;;5.55;3.70;;;;;;;16.03;100.00;101138.03;5064728;28;20032;-71
2023/09/29 04:41:48;;;;;;;6.88;3.58;;;;;;;16.04;100.00;101152.31;5061647;28;20036;-69
2023/09/29 04:44:13;;;;;;;5.97;4.10;;;;;;;16.04;100.00;101145.13;5064353;28;20360;-70
2023/09/29 04:46:41;;;;;;;4.50;3.40;;;;;;;16.07;100.00;101142.22;5065331;28;20032;-69
2023/09/29 04:49:07;;;;;;;4.95;3.75;;;;;;;16.08;100.00;101137.72;5063915;28;20063;-69
2023/09/29 04:51:33;;;;;;;5.47;3.80;;;;;;;16.12;100.00;101139.22;5059063;28;20033;-70
2023/09/29 04:53:58;;;;;;;5.53;3.63;;;;;;;16.16;100.00;101138.06;5064656;28;20474;-70
2023/09/29 04:56:24;;;;;;;4.60;3.60;;;;;;;16.16;100.00;101141.59;5059193;28;20031;-70
2023/09/29 04:58:49;;;;;;;5.88;3.70;;;;;;;16.16;100.00;101141.59;5064230;28;20394;-70
2023/09/29 05:01:18;;;;;;;5.35;3.85;;;;;;;16.19;100.00;101153.97;5065666;28;20503;-70
2023/09/29 05:03:47;;;;;;;5.07;3.97;;;;;;;16.21;100.00;101146.63;5064305;28;20115;-69
2023/09/29 05:06:13;;;;;;;5.55;3.70;;;;;;;16.25;100.00;101150.84;5064757;28;20051;-69
2023/09/29 05:08:39;;;;;;;6.00;3.80;;;;;;;16.26;100.00;101136.47;5063823;28;20522;-70
2023/09/29 05:11:05;;;;;;;4.72;3.75;;;;;;;16.24;100.00;101140.22;5068283;28;20025;-69
2023/09/29 05:13:32;;;;;;;4.85;3.90;;;;;;;16.29;100.00;101138.06;5046256;28;20494;-68
2023/09/29 05:16:01;;;;;;;5.60;3.72;;;;;;;16.25;100.00;101137.41;5062439;28;20026;-69
2023/09/29 05:18:26;;;;;;;4.47;3.90;;;;;;;16.26;100.00;101136.47;5062954;28;20078;-68
2023/09/29 05:20:52;;;;;;;4.55;3.50;;;;;;;16.26;100.00;101133.78;5052784;28;20506;-69
2023/09/29 05:23:17;;;;;;;5.32;3.80;;;;;;;16.26;100.00;101123.03;5060371;28;20047;-68
2023/09/29 05:25:48;;;;;;;5.53;3.95;;;;;;;16.27;100.00;101122.06;5060192;28;20031;-69
2023/09/29 05:28:14;;;;;;;4.22;3.70;;;;;;;16.24;100.00;101114.22;5056060;28;20037;-69
2023/09/29 05:30:43;;;;;;;5.32;3.75;;;;;;;16.25;100.00;101110.53;5058401;28;20025;-68
2023/09/29 05:33:08;;;;;;;5.18;3.80;;;;;;;16.21;100.00;101117.09;5060370;28;20044;-68
2023/09/29 05:35:35;;;;;;;4.82;4.05;;;;;;;16.23;100.00;101117.00;5061232;28;20106;-70
2023/09/29 05:38:00;;;;;;;5.30;4.53;;;;;;;16.24;100.00;101119.56;5022470;28;20021;-68
2023/09/29 05:40:25;;;;;;;5.13;3.83;;;;;;;16.26;100.00;101120.34;5040276;28;20116;-70
2023/09/29 05:42:51;;;;;;;5.53;3.55;;;;;;;16.28;100.00;101115.72;5043142;28;20061;-69
2023/09/29 05:45:16;;;;;;;4.68;3.70;;;;;;;16.31;100.00;101120.00;5039974;28;20036;-70
2023/09/29 05:47:42;;;;;;;5.50;3.45;;;;;;;16.32;100.00;101117.22;5041949;28;20033;-68
2023/09/29 05:50:07;;;;;;;5.43;4.22;;;;;;;16.31;100.00;101107.44;5041504;28;20045;-69
2023/09/29 05:52:33;;;;;;;4.00;3.45;;;;;;;16.35;100.00;101108.09;5040706;28;20029;-69
2023/09/29 05:54:58;;;;;;;5.15;3.67;;;;;;;16.42;100.00;101115.56;5038399;28;20119;-69
2023/09/29 05:57:23;;;;;;;6.57;3.60;;;;;;;16.46;100.00;101118.91;5038341;28;20336;-69
2023/09/29 05:59:49;;;;;;;6.55;3.90;;;;;;;16.48;100.00;101119.69;5021465;28;20115;-68
2023/09/29 06:02:14;;;;;;;8.68;4.65;;;;;;;16.51;100.00;101124.84;5033125;28;20072;-69
2023/09/29 06:04:39;;;;;;;7.18;4.82;;;;;;;16.52;100.00;101123.00;5030037;28;20037;-69
2023/09/29 06:07:05;;;;;;;7.30;3.90;;;;;;;16.57;100.00;101126.22;5038114;28;20064;-69
2023/09/29 06:09:30;;;;;;;6.68;3.97;;;;;;;16.62;100.00;101126.75;5044296;28;20104;-69
2023/09/29 06:11:56;;;;;;;7.35;4.13;;;;;;;16.70;100.00;101121.69;5039829;28;20029;-69
2023/09/29 06:14:21;;;;;;;7.43;4.15;;;;;;;16.75;100.00;101140.19;5041529;28;20025;-69
2023/09/29 06:16:46;;;;;;;13.15;5.93;;;;;;;16.64;100.00;101132.88;5037032;28;20025;-69
2023/09/29 06:19:13;;;;;;;9.68;5.57;;;;;;;16.46;100.00;101137.72;5039453;28;20542;-68
2023/09/29 06:21:39;;;;;;;6.30;5.15;;;;;;;16.33;100.00;101137.72;5042200;28;20033;-68
2023/09/29 06:24:05;;;;;;;7.53;5.75;;;;;;;16.29;100.00;101135.38;5040995;28;20013;-69
2023/09/29 06:26:30;;;;;;;7.88;5.85;;;;;;;16.27;100.00;101135.47;5024844;28;20052;-69
2023/09/29 06:28:56;;;;;;;9.27;5.97;;;;;;;16.24;100.00;101119.56;5041607;28;20207;-69
2023/09/29 06:31:21;;;;;;;8.10;6.45;;;;;;;16.33;100.00;101124.28;5044065;28;20498;-70
2023/09/29 06:33:46;;;;;;;7.22;6.03;;;;;;;16.31;100.00;101131.63;5035392;28;20471;-69
2023/09/29 06:36:12;;;;;;;10.43;6.57;;;;;;;16.34;100.00;101127.84;5041995;28;20036;-70
2023/09/29 06:38:37;;;;;;;7.15;6.13;;;;;;;16.34;100.00;101125.16;5029072;28;20529;-69
2023/09/29 06:41:02;;;;;;;9.85;6.00;;;;;;;16.37;100.00;101131.16;5040509;28;20110;-69
2023/09/29 06:43:28;;;;;;;7.30;5.78;;;;;;;16.35;100.00;101111.63;5037893;28;20037;-69
2023/09/29 06:45:53;;;;;;;7.50;5.85;;;;;;;16.38;100.00;101122.13;5038399;28;20115;-70
2023/09/29 06:48:19;;;;;;;12.20;6.53;;;;;;;16.42;100.00;101130.84;5042184;28;20055;-69
2023/09/29 06:50:44;;;;;;;8.93;6.20;;;;;;;16.42;100.00;101131.69;5019593;28;20038;-69
2023/09/29 06:53:09;;;;;;;9.48;6.50;;;;;;;16.47;100.00;101136.78;5033082;28;20037;-69
2023/09/29 06:55:35;;;;;;;9.55;6.22;;;;;;;16.53;100.00;101138.16;5036792;28;20057;-69
2023/09/29 06:58:03;;;;;;;9.30;6.40;;;;;;;16.51;100.00;101138.28;5034659;28;20040;-69
2023/09/29 07:00:28;;;;;;;9.73;6.35;;;;;;;16.52;100.00;101141.81;5036736;28;20086;-69
2023/09/29 07:02:53;;;;;;;6.90;5.78;;;;;;;16.52;100.00;101148.03;5044898;28;20749;-70
2023/09/29 07:05:19;;;;;;;6.78;5.28;;;;;;;16.48;100.00;101151.91;5042830;28;20212;-70
2023/09/29 07:07:45;;;;;;;8.35;5.32;;;;;;;16.47;100.00;101141.25;5024220;28;20025;-70
2023/09/29 07:10:10;;;;;;;6.68;5.55;;;;;;;16.51;100.00;101143.66;5037966;28;20082;-70
2023/09/29 07:12:36;;;;;;;7.55;6.10;;;;;;;16.49;100.00;101150.09;5039174;28;20064;-69
2023/09/29 07:15:02;;;;;;;7.13;6.10;;;;;;;16.48;100.00;101143.84;5041376;28;20033;-70
2023/09/29 07:17:28;;;;;;;7.13;6.00;;;;;;;16.48;100.00;101148.38;5043932;28;20517;-69
2023/09/29 07:19:53;;;;;;;9.05;6.72;;;;;;;16.48;100.00;101146.53;5021017;28;20567;-69
2023/09/29 07:22:19;;;;;;;5.95;5.30;;;;;;;16.54;100.00;101148.78;5042164;28;20028;-70
2023/09/29 07:24:45;;;;;;;7.78;5.43;;;;;;;16.63;100.00;101152.63;5041148;28;20049;-69
2023/09/29 07:27:12;;;;;;;8.38;5.70;;;;;;;16.69;100.00;101162.97;5042968;28;20060;-68
2023/09/29 07:29:37;;;;;;;4.70;4.10;;;;;;;16.78;100.00;101159.66;5034129;28;20032;-68
2023/09/29 07:32:03;;;;;;;5.45;3.95;;;;;;;16.84;100.00;101164.56;5036635;28;20024;-69
2023/09/29 07:34:30;;;;;;;6.13;4.15;;;;;;;16.98;100.00;101165.44;5038447;28;20100;-68
2023/09/29 07:36:56;;;;;;;5.68;4.85;;;;;;;17.27;100.00;101160.59;5055442;28;20051;-68
2023/09/29 07:39:21;;;;;;;7.10;4.70;;;;;;;17.50;100.00;101156.19;5041811;28;20129;-68
2023/09/29 07:41:47;;;;;;;5.03;3.90;;;;;;;17.71;100.00;101159.94;5038821;28;20017;-69
2023/09/29 07:44:13;;;;;;;4.35;3.60;;;;;;;17.92;100.00;101169.13;5034191;28;20095;-69
2023/09/29 07:46:38;;;;;;;6.18;3.20;;;;;;;18.10;100.00;101163.28;5035657;28;20573;-68
2023/09/29 07:49:07;;;;;;;4.82;3.10;;;;;;;18.27;100.00;101170.94;5040413;28;20063;-68
2023/09/29 07:51:32;;;;;;;4.70;3.10;;;;;;;18.29;100.00;101158.19;5039796;28;20021;-69
2023/09/29 07:53:58;;;;;;;4.35;3.22;;;;;;;18.23;100.00;101157.81;5031127;28;20033;-69
2023/09/29 07:56:24;;;;;;;4.10;3.08;;;;;;;18.30;100.00;101159.91;5033610;28;20032;-67
2023/09/29 07:58:50;;;;;;;4.53;2.63;;;;;;;18.30;100.00;101161.75;5037155;28;20064;-69
2023/09/29 08:01:16;;;;;;;4.93;3.00;;;;;;;18.51;100.00;101156.50;5031513;28;20096;-68
2023/09/29 08:03:44;;;;;;;6.30;3.03;;;;;;;18.86;100.00;101170.75;5040207;28;20519;-67
2023/09/29 08:06:09;;;;;;;2.80;2.50;;;;;;;19.22;100.00;101167.88;5041223;28;20040;-68
2023/09/29 08:08:37;;;;;;;5.95;2.78;;;;;;;19.69;100.00;101173.91;5039776;28;20064;-69
2023/09/29 08:11:03;;;;;;;3.67;2.40;;;;;;;19.99;100.00;101168.63;5035308;28;20052;-69
2023/09/29 08:13:28;;;;;;;4.43;2.90;;;;;;;20.45;100.00;101182.72;5041087;28;20029;-69
2023/09/29 08:15:53;;;;;;;2.70;2.50;;;;;;;20.53;100.00;101185.66;5040807;28;20033;-69
2023/09/29 08:18:19;;;;;;;2.60;2.15;;;;;;;20.37;100.00;101189.63;5034695;28;20471;-69
2023/09/29 08:20:44;;;;;;;3.05;2.22;;;;;;;20.35;100.00;101188.91;5039729;28;20055;-70
2023/09/29 08:23:10;;;;;;;4.03;3.00;;;;;;;20.66;100.00;101207.91;5032861;28;20068;-69
2023/09/29 08:25:35;;;;;;;5.35;2.67;;;;;;;20.81;100.00;101192.16;5037947;28;20060;-68
2023/09/29 08:28:03;;;;;;;3.33;2.42;;;;;;;21.00;100.00;101210.34;5042116;28;20021;-69
2023/09/29 08:30:29;;;;;;;4.10;2.50;;;;;;;20.99;100.00;101206.78;5038731;28;20033;-68
2023/09/29 08:32:56;;;;;;;4.07;2.70;;;;;;;20.92;100.00;101200.19;5028798;28;20571;-68
2023/09/29 08:35:21;;;;;;;3.90;2.40;;;;;;;20.98;99.90;101215.00;5035706;28;20028;-69
2023/09/29 08:37:47;;;;;;;4.22;2.50;;;;;;;20.99;100.00;101217.59;5035675;28;20098;-67
2023/09/29 08:40:16;;;;;;;3.17;2.60;;;;;;;20.91;98.75;101225.53;5038663;28;20363;-68
2023/09/29 08:42:45;;;;;;;4.68;2.55;;;;;;;21.18;98.92;101222.22;5041984;28;20476;-69
2023/09/29 08:45:11;;;;;;;3.60;2.20;;;;;;;21.46;94.64;101228.75;5036190;28;20108;-68
2023/09/29 08:47:40;;;;;;;5.38;3.08;;;;;;;21.44;95.30;101229.88;5032718;28;20516;-69
2023/09/29 08:50:14;;;;;;;5.95;2.55;;;;;;;21.25;96.83;101230.66;5034638;28;20053;-69
2023/09/29 08:52:47;;;;;;;6.18;2.85;;;;;;;21.20;95.30;101241.91;5038075;28;20479;-68
2023/09/29 08:55:12;;;;;;;5.88;2.83;;;;;;;21.04;96.09;101241.56;5041694;28;20120;-68
2023/09/29 08:57:42;;;;;;;4.50;3.08;;;;;;;21.05;96.82;101243.25;5045569;28;20708;-68
2023/09/29 09:00:18;;;;;;;3.85;2.80;;;;;;;21.78;94.04;101252.91;5042020;28;20055;-68
2023/09/29 09:02:44;;;;;;;8.30;2.88;;;;;;;22.22;91.28;101244.38;5020703;28;20132;-69
2023/09/29 09:05:11;;;;;;;4.70;2.75;;;;;;;22.51;88.64;101247.91;5037567;28;20481;-69
2023/09/29 09:07:38;;;;;;;3.58;2.50;;;;;;;23.15;85.10;101240.88;5036431;28;20037;-69
2023/09/29 09:10:03;;;;;;;5.00;2.80;;;;;;;23.52;81.82;101253.53;5038079;28;20029;-70
2023/09/29 09:12:36;;;;;;;4.15;2.50;;;;;;;22.87;83.77;101243.53;5037505;28;20048;-69
2023/09/29 09:15:07;;;;;;;4.05;2.63;;;;;;;22.22;88.97;101253.38;5022381;28;20048;-68
2023/09/29 09:17:37;;;;;;;7.68;2.50;;;;;;;21.85;89.90;101245.06;5055315;28;20090;-68
2023/09/29 09:20:03;;;;;;;4.45;2.65;;;;;;;22.02;89.77;101255.19;5034607;28;20471;-68
2023/09/29 09:22:32;;;;;;;5.95;2.80;;;;;;;22.68;86.83;101251.72;5042388;28;20021;-69
2023/09/29 09:25:02;;;;;;;7.00;2.90;;;;;;;22.78;85.55;101257.13;5042712;28;20040;-69
2023/09/29 09:27:41;;;;;;;3.25;2.83;;;;;;;22.77;86.68;101267.13;5043269;28;20079;-69
2023/09/29 09:30:23;;;;;;;6.32;2.72;;;;;;;23.02;83.97;101260.22;5042125;28;20040;-69
2023/09/29 09:32:48;;;;;;;5.03;2.55;;;;;;;22.78;85.93;101263.44;5023661;28;20027;-69
2023/09/29 09:35:27;;;;;;;4.95;2.75;;;;;;;22.56;87.13;101267.31;5041573;28;20383;-70
2023/09/29 09:37:53;;;;;;;4.28;2.80;;;;;;;22.28;86.45;101270.91;5040821;28;20025;-70
2023/09/29 09:40:19;;;;;;;5.03;2.78;;;;;;;22.03;89.49;101278.59;5042759;28;20024;-69
2023/09/29 09:42:46;;;;;;;4.40;2.60;;;;;;;21.92;88.87;101277.88;5042139;28;20060;-70
2023/09/29 09:45:13;;;;;;;5.70;2.78;;;;;;;21.68;90.42;101276.41;5044227;28;20037;-70
2023/09/29 09:47:39;;;;;;;5.72;3.03;;;;;;;21.83;91.72;101279.56;5043155;28;20028;-71
2023/09/29 09:50:09;;;;;;;4.93;2.72;;;;;;;22.21;86.43;101278.78;5040917;28;20052;-70
2023/09/29 09:52:35;;;;;;;3.90;2.58;;;;;;;22.35;87.74;101289.19;5042344;28;20190;-69
2023/09/29 09:55:10;;;;;;;5.25;2.80;;;;;;;22.22;88.51;101288.63;5042402;28;20479;-69
2023/09/29 09:57:38;;;;;;;4.65;2.80;;;;;;;21.85;88.76;101291.13;5040059;28;20102;-70
2023/09/29 10:00:10;;;;;;;5.80;2.83;;;;;;;21.34;92.63;101297.53;5040443;28;20040;-71
2023/09/29 10:02:45;;;;;;;6.20;3.45;;;;;;;21.04;93.63;101309.22;5038433;28;20063;-70
2023/09/29 10:05:22;;;;;;;4.78;2.85;;;;;;;20.88;95.06;101309.69;5042112;28;20036;-69
2023/09/29 10:07:53;;;;;;;4.20;2.95;;;;;;;20.75;96.23;101303.63;5039812;28;20029;-70
2023/09/29 10:10:42;;;;;;;5.57;3.10;;;;;;;20.71;97.36;101313.00;5039095;28;20033;-70
2023/09/29 10:13:15;;;;;;;5.20;3.20;;;;;;;20.65;98.09;101311.69;5031085;28;20132;-68
2023/09/29 10:15:41;;;;;;;;;;;;;;;21.04;96.36;101320.88;5035329;28;20028;-69
2023/09/29 10:18:19;;;;;;;7.38;3.00;;;;;;;21.14;94.75;101318.22;5037941;28;19972;-68
2023/09/29 10:20:55;;;;;;;6.95;3.05;;;;;;;21.04;96.72;101318.19;5042144;28;20132;-69
2023/09/29 10:23:21;;;;;;;5.13;3.35;;;;;;;21.04;94.82;101310.06;5040097;28;20060;-71
2023/09/29 10:26:02;;;;;;;6.20;3.20;;;;;;;21.03;96.75;101315.63;5040601;28;20046;-71
2023/09/29 10:28:31;;;;;;;7.07;3.38;;;;;;;20.99;97.29;101315.03;5037773;28;20522;-70
2023/09/29 10:31:07;;;;;;;4.85;2.92;;;;;;;20.94;97.64;101310.97;5040956;28;20044;-70
2023/09/29 10:33:32;;;;;;;5.63;2.70;;;;;;;20.92;97.19;101313.84;5041780;28;20422;-70
2023/09/29 10:35:57;;;;;;;4.75;2.90;;;;;;;21.01;97.57;101313.03;5010243;28;20033;-70
2023/09/29 10:38:23;;;;;;;8.45;3.65;;;;;;;21.12;96.19;101321.06;5039176;28;20028;-70
2023/09/29 10:40:50;;;;;;;7.00;3.00;;;;;;;21.08;97.13;101308.81;5040720;28;20120;-70
2023/09/29 10:43:22;;;;;;;5.78;3.00;;;;;;;21.18;96.92;101318.81;5038315;28;20068;-70
2023/09/29 10:45:50;;;;;;;6.57;3.70;;;;;;;21.20;95.38;101325.81;5037544;28;20031;-70
2023/09/29 10:48:17;;;;;;;6.05;3.00;;;;;;;21.16;95.75;101327.06;5037972;28;20033;-71
2023/09/29 10:50:45;;;;;;;4.95;2.95;;;;;;;21.06;95.27;101323.44;5041918;28;20049;-70
2023/09/29 10:53:12;;;;;;;5.28;2.92;;;;;;;20.96;96.60;101333.38;5041734;28;20052;-70
2023/09/29 10:55:46;;;;;;;6.43;3.05;;;;;;;20.88;96.58;101339.44;5040586;28;20052;-68
2023/09/29 10:58:13;;;;;;;5.65;2.63;;;;;;;20.98;98.17;101339.50;5040848;28;20088;-70
2023/09/29 11:00:49;;;;;;;3.65;2.33;;;;;;;21.31;97.00;101338.38;5042280;28;20324;-70
2023/09/29 11:03:16;;;;;;;5.03;2.42;;;;;;;21.64;94.95;101343.53;5039387;28;20025;-70
2023/09/29 11:05:48;;;;;;;3.58;2.33;;;;;;;21.67;91.78;101353.25;5037385;28;20103;-70
2023/09/29 11:08:14;;;;;;;5.10;2.80;;;;;;;21.44;91.91;101352.59;5038584;28;20048;-71
2023/09/29 11:10:39;;;;;;;5.70;2.70;;;;;;;21.33;93.03;101353.56;5039492;28;20043;-70
2023/09/29 11:13:15;;;;;;;6.22;2.40;;;;;;;21.80;93.06;101344.88;5038401;28;20033;-70
2023/09/29 11:15:41;;;;;;;4.72;2.50;;;;;;;22.09;88.59;101356.63;5039403;28;20055;-69
2023/09/29 11:18:06;;;;;;;4.90;2.78;;;;;;;22.09;88.96;101359.34;5036897;28;20064;-70